Veghel, Netherlands
Current Conditions -  °F | °C
As of 5:25 PM on Sunday 25 Jan 2015 (Local Time) from EHVK Reporting Station
Haze Haze  
Wind Chill: 33°   Ceiling: 500
Heat Index: 39°   Visibility: 2.8mi
Dew Point: 37°   Wind: 9mph
Humidity: 93%   Direction: 230°SW
Pressure: 30.36"   Gusts: NA
Location:  51.62°N, 5.55°E
Report Text: EHVK 251625Z AUTO 23008KT 4500 BR BKN005 BKN042 OVC046 04/03 Q1028 YLO
Loading
Personal Weather Stations






























Interactive Weather Map New forecast layout! Learn more

10-Day Weather Forecast

Advertisements
Track Severe Weather on mobile